sensor_id;sensor_type;location;lat;lon;timestamp;temperature;humidity
74968;SHT30;63523;51.880;12.630;2023-04-03T00:01:28;1.52;74.86
74968;SHT30;63523;51.880;12.630;2023-04-03T00:03:54;1.56;74.64
74968;SHT30;63523;51.880;12.630;2023-04-03T00:06:20;1.50;74.65
74968;SHT30;63523;51.880;12.630;2023-04-03T00:08:45;1.45;74.73
74968;SHT30;63523;51.880;12.630;2023-04-03T00:11:11;1.48;74.23
74968;SHT30;63523;51.880;12.630;2023-04-03T00:13:38;1.51;73.43
74968;SHT30;63523;51.880;12.630;2023-04-03T00:16:04;1.50;73.85
74968;SHT30;63523;51.880;12.630;2023-04-03T00:18:30;1.41;74.44
74968;SHT30;63523;51.880;12.630;2023-04-03T00:20:55;1.51;73.82
74968;SHT30;63523;51.880;12.630;2023-04-03T00:23:21;1.51;74.39
74968;SHT30;63523;51.880;12.630;2023-04-03T00:25:49;1.47;73.94
74968;SHT30;63523;51.880;12.630;2023-04-03T00:28:15;1.41;74.35
74968;SHT30;63523;51.880;12.630;2023-04-03T00:30:40;1.28;73.86
74968;SHT30;63523;51.880;12.630;2023-04-03T00:33:06;1.26;74.45
74968;SHT30;63523;51.880;12.630;2023-04-03T00:35:34;1.38;74.19
74968;SHT30;63523;51.880;12.630;2023-04-03T00:37:59;1.44;73.57
74968;SHT30;63523;51.880;12.630;2023-04-03T00:40:26;1.45;74.28
74968;SHT30;63523;51.880;12.630;2023-04-03T00:42:57;1.40;74.24
74968;SHT30;63523;51.880;12.630;2023-04-03T00:45:36;1.27;74.25
74968;SHT30;63523;51.880;12.630;2023-04-03T00:48:04;1.26;74.83
74968;SHT30;63523;51.880;12.630;2023-04-03T00:50:33;1.28;75.09
74968;SHT30;63523;51.880;12.630;2023-04-03T00:53:00;1.24;74.81
74968;SHT30;63523;51.880;12.630;2023-04-03T00:55:26;1.20;74.41
74968;SHT30;63523;51.880;12.630;2023-04-03T00:57:52;1.08;75.30
74968;SHT30;63523;51.880;12.630;2023-04-03T01:00:20;1.23;74.75
74968;SHT30;63523;51.880;12.630;2023-04-03T01:02:47;1.24;74.73
74968;SHT30;63523;51.880;12.630;2023-04-03T01:05:15;1.27;74.20
74968;SHT30;63523;51.880;12.630;2023-04-03T01:07:40;1.30;73.90
74968;SHT30;63523;51.880;12.630;2023-04-03T01:10:09;1.14;74.41
74968;SHT30;63523;51.880;12.630;2023-04-03T01:12:40;1.19;74.56
74968;SHT30;63523;51.880;12.630;2023-04-03T01:17:41;1.13;75.16
74968;SHT30;63523;51.880;12.630;2023-04-03T01:25:37;1.01;75.71
74968;SHT30;63523;51.880;12.630;2023-04-03T01:28:05;1.01;75.69
74968;SHT30;63523;51.880;12.630;2023-04-03T01:30:35;1.00;75.96
74968;SHT30;63523;51.880;12.630;2023-04-03T01:33:02;1.03;76.39
74968;SHT30;63523;51.880;12.630;2023-04-03T01:35:27;0.99;75.99
74968;SHT30;63523;51.880;12.630;2023-04-03T01:37:53;1.00;75.90
74968;SHT30;63523;51.880;12.630;2023-04-03T01:40:19;0.92;76.37
74968;SHT30;63523;51.880;12.630;2023-04-03T01:42:44;0.95;76.01
74968;SHT30;63523;51.880;12.630;2023-04-03T01:45:10;0.93;75.70
74968;SHT30;63523;51.880;12.630;2023-04-03T01:47:36;0.95;75.92
74968;SHT30;63523;51.880;12.630;2023-04-03T01:50:01;0.95;76.28
74968;SHT30;63523;51.880;12.630;2023-04-03T01:52:27;0.88;76.51
74968;SHT30;63523;51.880;12.630;2023-04-03T01:54:53;0.82;76.20
74968;SHT30;63523;51.880;12.630;2023-04-03T01:57:18;0.78;77.11
74968;SHT30;63523;51.880;12.630;2023-04-03T01:59:43;0.68;77.18
74968;SHT30;63523;51.880;12.630;2023-04-03T02:02:09;0.66;77.87
74968;SHT30;63523;51.880;12.630;2023-04-03T02:04:37;0.76;77.16
74968;SHT30;63523;51.880;12.630;2023-04-03T02:07:03;0.75;76.97
74968;SHT30;63523;51.880;12.630;2023-04-03T02:09:28;0.83;76.43
74968;SHT30;63523;51.880;12.630;2023-04-03T02:11:54;0.73;76.02
74968;SHT30;63523;51.880;12.630;2023-04-03T02:14:20;0.64;77.06
74968;SHT30;63523;51.880;12.630;2023-04-03T02:16:47;0.73;76.74
74968;SHT30;63523;51.880;12.630;2023-04-03T02:19:12;0.78;76.33
74968;SHT30;63523;51.880;12.630;2023-04-03T02:21:38;0.68;76.05
74968;SHT30;63523;51.880;12.630;2023-04-03T02:24:04;0.62;77.05
74968;SHT30;63523;51.880;12.630;2023-04-03T02:26:29;0.57;77.18
74968;SHT30;63523;51.880;12.630;2023-04-03T02:28:55;0.48;76.58
74968;SHT30;63523;51.880;12.630;2023-04-03T02:31:20;0.57;76.46
74968;SHT30;63523;51.880;12.630;2023-04-03T02:33:46;0.59;76.83
74968;SHT30;63523;51.880;12.630;2023-04-03T02:36:11;0.64;75.96
74968;SHT30;63523;51.880;12.630;2023-04-03T02:38:37;0.66;76.08
74968;SHT30;63523;51.880;12.630;2023-04-03T02:41:04;0.64;76.47
74968;SHT30;63523;51.880;12.630;2023-04-03T02:43:31;0.70;75.83
74968;SHT30;63523;51.880;12.630;2023-04-03T02:45:56;0.79;74.76
74968;SHT30;63523;51.880;12.630;2023-04-03T02:48:22;0.73;74.92
74968;SHT30;63523;51.880;12.630;2023-04-03T02:50:48;0.66;75.36
74968;SHT30;63523;51.880;12.630;2023-04-03T02:53:14;0.78;74.64
74968;SHT30;63523;51.880;12.630;2023-04-03T02:55:40;0.76;74.77
74968;SHT30;63523;51.880;12.630;2023-04-03T02:58:06;0.72;74.58
74968;SHT30;63523;51.880;12.630;2023-04-03T03:00:32;0.68;75.48
74968;SHT30;63523;51.880;12.630;2023-04-03T03:02:57;0.68;75.56
74968;SHT30;63523;51.880;12.630;2023-04-03T03:05:23;0.76;75.14
74968;SHT30;63523;51.880;12.630;2023-04-03T03:07:48;0.78;75.01
74968;SHT30;63523;51.880;12.630;2023-04-03T03:10:14;0.65;75.58
74968;SHT30;63523;51.880;12.630;2023-04-03T03:12:40;0.62;75.43
74968;SHT30;63523;51.880;12.630;2023-04-03T03:15:06;0.66;75.53
74968;SHT30;63523;51.880;12.630;2023-04-03T03:17:32;0.61;75.95
74968;SHT30;63523;51.880;12.630;2023-04-03T03:19:58;0.54;76.14
74968;SHT30;63523;51.880;12.630;2023-04-03T03:22:23;0.61;75.29
74968;SHT30;63523;51.880;12.630;2023-04-03T03:24:49;0.52;75.74
74968;SHT30;63523;51.880;12.630;2023-04-03T03:27:15;0.52;75.88
74968;SHT30;63523;51.880;12.630;2023-04-03T03:29:42;0.47;75.98
74968;SHT30;63523;51.880;12.630;2023-04-03T03:32:07;0.41;76.21
74968;SHT30;63523;51.880;12.630;2023-04-03T03:34:33;0.41;76.00
74968;SHT30;63523;51.880;12.630;2023-04-03T03:36:58;0.44;75.96
74968;SHT30;63523;51.880;12.630;2023-04-03T03:39:24;0.48;75.36
74968;SHT30;63523;51.880;12.630;2023-04-03T03:41:50;0.45;75.13
74968;SHT30;63523;51.880;12.630;2023-04-03T03:44:15;0.41;75.58
74968;SHT30;63523;51.880;12.630;2023-04-03T03:46:41;0.37;75.81
74968;SHT30;63523;51.880;12.630;2023-04-03T03:49:06;0.31;76.39
74968;SHT30;63523;51.880;12.630;2023-04-03T03:51:32;0.33;76.13
74968;SHT30;63523;51.880;12.630;2023-04-03T03:53:57;0.25;76.76
74968;SHT30;63523;51.880;12.630;2023-04-03T03:56:23;0.25;76.83
74968;SHT30;63523;51.880;12.630;2023-04-03T03:58:48;0.17;77.16
74968;SHT30;63523;51.880;12.630;2023-04-03T04:01:15;0.16;77.19
74968;SHT30;63523;51.880;12.630;2023-04-03T04:03:40;0.14;77.54
74968;SHT30;63523;51.880;12.630;2023-04-03T04:06:06;0.09;77.49
74968;SHT30;63523;51.880;12.630;2023-04-03T04:08:31;0.14;77.37
74968;SHT30;63523;51.880;12.630;2023-04-03T04:10:57;0.10;77.56
74968;SHT30;63523;51.880;12.630;2023-04-03T04:13:23;0.07;77.46
74968;SHT30;63523;51.880;12.630;2023-04-03T04:15:48;0.02;77.87
74968;SHT30;63523;51.880;12.630;2023-04-03T04:18:14;0.02;77.89
74968;SHT30;63523;51.880;12.630;2023-04-03T04:20:39;0.03;77.88
74968;SHT30;63523;51.880;12.630;2023-04-03T04:23:05;0.02;78.09
74968;SHT30;63523;51.880;12.630;2023-04-03T04:25:30;0.11;77.05
74968;SHT30;63523;51.880;12.630;2023-04-03T04:27:56;0.11;77.35
74968;SHT30;63523;51.880;12.630;2023-04-03T04:30:22;0.11;77.48
74968;SHT30;63523;51.880;12.630;2023-04-03T04:32:47;0.16;76.90
74968;SHT30;63523;51.880;12.630;2023-04-03T04:35:13;0.14;77.50
74968;SHT30;63523;51.880;12.630;2023-04-03T04:37:38;0.16;77.51
74968;SHT30;63523;51.880;12.630;2023-04-03T04:40:04;0.14;77.31
74968;SHT30;63523;51.880;12.630;2023-04-03T04:42:30;0.13;77.21
74968;SHT30;63523;51.880;12.630;2023-04-03T04:44:55;0.16;77.43
74968;SHT30;63523;51.880;12.630;2023-04-03T04:47:21;0.13;77.97
74968;SHT30;63523;51.880;12.630;2023-04-03T04:49:46;0.20;77.53
74968;SHT30;63523;51.880;12.630;2023-04-03T04:52:13;0.20;77.68
74968;SHT30;63523;51.880;12.630;2023-04-03T04:54:38;0.20;77.49
74968;SHT30;63523;51.880;12.630;2023-04-03T04:57:04;0.31;77.75
74968;SHT30;63523;51.880;12.630;2023-04-03T04:59:29;0.47;76.59
74968;SHT30;63523;51.880;12.630;2023-04-03T05:01:55;0.59;76.31
74968;SHT30;63523;51.880;12.630;2023-04-03T05:04:20;0.80;75.75
74968;SHT30;63523;51.880;12.630;2023-04-03T05:06:46;0.92;75.39
74968;SHT30;63523;51.880;12.630;2023-04-03T05:09:11;1.10;74.16
74968;SHT30;63523;51.880;12.630;2023-04-03T05:11:37;1.20;73.92
74968;SHT30;63523;51.880;12.630;2023-04-03T05:14:03;1.33;73.73
74968;SHT30;63523;51.880;12.630;2023-04-03T05:16:32;1.44;73.01
74968;SHT30;63523;51.880;12.630;2023-04-03T05:18:57;1.51;73.10
74968;SHT30;63523;51.880;12.630;2023-04-03T05:21:23;1.54;72.90
74968;SHT30;63523;51.880;12.630;2023-04-03T05:23:51;1.55;73.07
74968;SHT30;63523;51.880;12.630;2023-04-03T05:26:17;1.65;72.59
74968;SHT30;63523;51.880;12.630;2023-04-03T05:28:45;1.79;71.49
74968;SHT30;63523;51.880;12.630;2023-04-03T05:31:10;1.76;72.74
74968;SHT30;63523;51.880;12.630;2023-04-03T05:33:36;1.85;71.61
74968;SHT30;63523;51.880;12.630;2023-04-03T05:36:03;1.87;71.98
74968;SHT30;63523;51.880;12.630;2023-04-03T05:38:29;1.92;71.62
74968;SHT30;63523;51.880;12.630;2023-04-03T05:40:55;2.00;71.27
74968;SHT30;63523;51.880;12.630;2023-04-03T05:43:20;2.06;71.37
74968;SHT30;63523;51.880;12.630;2023-04-03T05:45:47;2.17;72.46
74968;SHT30;63523;51.880;12.630;2023-04-03T05:48:13;2.25;70.99
74968;SHT30;63523;51.880;12.630;2023-04-03T05:50:38;2.35;71.16
74968;SHT30;63523;51.880;12.630;2023-04-03T05:53:08;2.46;70.38
74968;SHT30;63523;51.880;12.630;2023-04-03T05:55:39;2.58;69.86
74968;SHT30;63523;51.880;12.630;2023-04-03T05:58:05;2.62;69.32
74968;SHT30;63523;51.880;12.630;2023-04-03T06:00:30;2.56;69.75
74968;SHT30;63523;51.880;12.630;2023-04-03T06:02:56;2.62;69.46
74968;SHT30;63523;51.880;12.630;2023-04-03T06:05:21;2.52;69.60
74968;SHT30;63523;51.880;12.630;2023-04-03T06:07:47;2.65;70.34
74968;SHT30;63523;51.880;12.630;2023-04-03T06:10:14;2.65;69.77
74968;SHT30;63523;51.880;12.630;2023-04-03T06:12:40;2.65;70.45
74968;SHT30;63523;51.880;12.630;2023-04-03T06:15:06;2.75;70.28
74968;SHT30;63523;51.880;12.630;2023-04-03T06:17:33;2.79;69.09
74968;SHT30;63523;51.880;12.630;2023-04-03T06:20:02;2.68;68.58
74968;SHT30;63523;51.880;12.630;2023-04-03T06:22:29;2.66;70.03
74968;SHT30;63523;51.880;12.630;2023-04-03T06:24:56;2.68;70.37
74968;SHT30;63523;51.880;12.630;2023-04-03T06:27:21;2.79;70.77
74968;SHT30;63523;51.880;12.630;2023-04-03T06:29:47;2.78;69.40
74968;SHT30;63523;51.880;12.630;2023-04-03T06:32:14;2.75;70.07
74968;SHT30;63523;51.880;12.630;2023-04-03T06:34:40;2.87;71.38
74968;SHT30;63523;51.880;12.630;2023-04-03T06:37:16;3.03;68.88
74968;SHT30;63523;51.880;12.630;2023-04-03T06:39:42;3.06;68.04
74968;SHT30;63523;51.880;12.630;2023-04-03T06:42:08;3.15;67.86
74968;SHT30;63523;51.880;12.630;2023-04-03T06:44:33;3.24;67.86
74968;SHT30;63523;51.880;12.630;2023-04-03T06:47:00;3.31;68.06
74968;SHT30;63523;51.880;12.630;2023-04-03T06:49:26;3.38;67.37
74968;SHT30;63523;51.880;12.630;2023-04-03T06:51:51;3.35;67.66
74968;SHT30;63523;51.880;12.630;2023-04-03T06:54:17;3.32;67.22
74968;SHT30;63523;51.880;12.630;2023-04-03T06:56:43;3.38;67.46
74968;SHT30;63523;51.880;12.630;2023-04-03T06:59:10;3.46;66.76
74968;SHT30;63523;51.880;12.630;2023-04-03T07:01:38;3.66;66.13
74968;SHT30;63523;51.880;12.630;2023-04-03T07:04:03;3.72;67.16
74968;SHT30;63523;51.880;12.630;2023-04-03T07:06:29;3.66;67.85
74968;SHT30;63523;51.880;12.630;2023-04-03T07:08:56;3.66;66.84
74968;SHT30;63523;51.880;12.630;2023-04-03T07:11:22;3.65;67.40
74968;SHT30;63523;51.880;12.630;2023-04-03T07:13:48;3.73;67.35
74968;SHT30;63523;51.880;12.630;2023-04-03T07:16:13;3.91;68.59
74968;SHT30;63523;51.880;12.630;2023-04-03T07:18:39;4.03;64.23
74968;SHT30;63523;51.880;12.630;2023-04-03T07:21:05;3.90;62.68
74968;SHT30;63523;51.880;12.630;2023-04-03T07:23:31;3.90;64.34
74968;SHT30;63523;51.880;12.630;2023-04-03T07:25:57;3.96;61.56
74968;SHT30;63523;51.880;12.630;2023-04-03T07:28:23;4.04;63.70
74968;SHT30;63523;51.880;12.630;2023-04-03T07:30:54;4.14;63.80
74968;SHT30;63523;51.880;12.630;2023-04-03T07:33:22;4.18;60.15
74968;SHT30;63523;51.880;12.630;2023-04-03T07:35:48;4.21;60.68
74968;SHT30;63523;51.880;12.630;2023-04-03T07:38:13;4.20;61.81
74968;SHT30;63523;51.880;12.630;2023-04-03T07:40:39;4.31;61.07
74968;SHT30;63523;51.880;12.630;2023-04-03T07:43:05;4.18;60.71
74968;SHT30;63523;51.880;12.630;2023-04-03T07:45:31;4.04;62.63
74968;SHT30;63523;51.880;12.630;2023-04-03T07:47:57;3.91;60.44
74968;SHT30;63523;51.880;12.630;2023-04-03T07:50:23;3.94;60.76
74968;SHT30;63523;51.880;12.630;2023-04-03T07:52:49;4.00;62.59
74968;SHT30;63523;51.880;12.630;2023-04-03T07:55:16;4.11;60.47
74968;SHT30;63523;51.880;12.630;2023-04-03T07:57:41;4.21;62.22
74968;SHT30;63523;51.880;12.630;2023-04-03T08:00:08;4.25;59.93
74968;SHT30;63523;51.880;12.630;2023-04-03T08:02:34;3.91;60.09
74968;SHT30;63523;51.880;12.630;2023-04-03T08:05:00;3.82;60.73
74968;SHT30;63523;51.880;12.630;2023-04-03T08:07:26;3.70;62.87
74968;SHT30;63523;51.880;12.630;2023-04-03T08:09:51;4.00;62.43
74968;SHT30;63523;51.880;12.630;2023-04-03T08:12:17;4.32;60.94
74968;SHT30;63523;51.880;12.630;2023-04-03T08:14:43;4.49;61.06
74968;SHT30;63523;51.880;12.630;2023-04-03T08:17:09;4.49;59.45
74968;SHT30;63523;51.880;12.630;2023-04-03T08:19:37;4.37;57.58
74968;SHT30;63523;51.880;12.630;2023-04-03T08:22:03;4.37;57.46
74968;SHT30;63523;51.880;12.630;2023-04-03T08:24:30;4.44;55.50
74968;SHT30;63523;51.880;12.630;2023-04-03T08:26:56;4.56;55.59
74968;SHT30;63523;51.880;12.630;2023-04-03T08:29:22;4.63;54.18
74968;SHT30;63523;51.880;12.630;2023-04-03T08:31:47;4.66;52.69
74968;SHT30;63523;51.880;12.630;2023-04-03T08:34:15;4.80;53.91
74968;SHT30;63523;51.880;12.630;2023-04-03T08:36:40;4.89;53.65
74968;SHT30;63523;51.880;12.630;2023-04-03T08:39:06;5.13;54.11
74968;SHT30;63523;51.880;12.630;2023-04-03T08:41:36;5.60;54.58
74968;SHT30;63523;51.880;12.630;2023-04-03T08:51:59;6.36;51.71
74968;SHT30;63523;51.880;12.630;2023-04-03T08:54:39;6.32;51.70
74968;SHT30;63523;51.880;12.630;2023-04-03T08:57:06;6.28;52.03
74968;SHT30;63523;51.880;12.630;2023-04-03T08:59:37;6.29;51.62
74968;SHT30;63523;51.880;12.630;2023-04-03T09:04:49;6.06;50.70
74968;SHT30;63523;51.880;12.630;2023-04-03T09:07:33;5.97;53.86
74968;SHT30;63523;51.880;12.630;2023-04-03T09:10:01;5.73;53.32
74968;SHT30;63523;51.880;12.630;2023-04-03T09:12:36;5.48;51.84
74968;SHT30;63523;51.880;12.630;2023-04-03T09:15:25;5.34;51.82
74968;SHT30;63523;51.880;12.630;2023-04-03T09:23:29;5.62;51.12
74968;SHT30;63523;51.880;12.630;2023-04-03T09:26:07;5.83;54.15
74968;SHT30;63523;51.880;12.630;2023-04-03T09:28:38;5.97;51.87
74968;SHT30;63523;51.880;12.630;2023-04-03T09:31:38;5.76;50.83
74968;SHT30;63523;51.880;12.630;2023-04-03T09:34:28;5.66;51.16
74968;SHT30;63523;51.880;12.630;2023-04-03T09:36:57;5.48;50.22
74968;SHT30;63523;51.880;12.630;2023-04-03T09:39:28;5.56;49.15
74968;SHT30;63523;51.880;12.630;2023-04-03T09:42:05;5.56;47.89
74968;SHT30;63523;51.880;12.630;2023-04-03T09:44:38;6.15;46.92
74968;SHT30;63523;51.880;12.630;2023-04-03T09:47:29;6.63;48.85
74968;SHT30;63523;51.880;12.630;2023-04-03T09:52:41;6.34;47.59
74968;SHT30;63523;51.880;12.630;2023-04-03T09:55:14;6.48;47.44
74968;SHT30;63523;51.880;12.630;2023-04-03T09:57:40;6.88;49.44
74968;SHT30;63523;51.880;12.630;2023-04-03T10:00:20;7.22;50.14
74968;SHT30;63523;51.880;12.630;2023-04-03T10:02:49;6.62;48.27
74968;SHT30;63523;51.880;12.630;2023-04-03T10:05:35;6.13;50.54
74968;SHT30;63523;51.880;12.630;2023-04-03T10:10:44;5.96;51.24
74968;SHT30;63523;51.880;12.630;2023-04-03T10:13:27;6.20;50.40
74968;SHT30;63523;51.880;12.630;2023-04-03T10:16:03;5.71;50.45
74968;SHT30;63523;51.880;12.630;2023-04-03T10:18:56;6.04;52.34
74968;SHT30;63523;51.880;12.630;2023-04-03T10:24:36;6.90;45.94
74968;SHT30;63523;51.880;12.630;2023-04-03T10:27:14;6.65;47.46
74968;SHT30;63523;51.880;12.630;2023-04-03T10:34:53;6.53;47.78
74968;SHT30;63523;51.880;12.630;2023-04-03T10:37:27;6.20;47.79
74968;SHT30;63523;51.880;12.630;2023-04-03T10:40:02;6.00;49.43
74968;SHT30;63523;51.880;12.630;2023-04-03T10:42:46;5.91;47.92
74968;SHT30;63523;51.880;12.630;2023-04-03T10:45:26;6.08;50.62
74968;SHT30;63523;51.880;12.630;2023-04-03T11:01:58;5.71;51.93
74968;SHT30;63523;51.880;12.630;2023-04-03T11:04:27;5.83;47.15
74968;SHT30;63523;51.880;12.630;2023-04-03T11:07:01;5.73;50.40
74968;SHT30;63523;51.880;12.630;2023-04-03T11:09:32;5.65;49.72
74968;SHT30;63523;51.880;12.630;2023-04-03T11:12:27;5.76;47.45
74968;SHT30;63523;51.880;12.630;2023-04-03T11:14:56;6.17;48.11
74968;SHT30;63523;51.880;12.630;2023-04-03T11:20:18;6.01;47.62
74968;SHT30;63523;51.880;12.630;2023-04-03T11:22:50;5.97;50.19
74968;SHT30;63523;51.880;12.630;2023-04-03T11:25:22;6.39;48.07
74968;SHT30;63523;51.880;12.630;2023-04-03T11:27:57;6.86;46.59
74968;SHT30;63523;51.880;12.630;2023-04-03T11:33:05;7.66;43.51
74968;SHT30;63523;51.880;12.630;2023-04-03T11:35:36;8.08;42.77
74968;SHT30;63523;51.880;12.630;2023-04-03T11:38:03;8.43;41.71
74968;SHT30;63523;51.880;12.630;2023-04-03T11:40:36;8.41;40.39
74968;SHT30;63523;51.880;12.630;2023-04-03T11:43:07;8.04;42.87
74968;SHT30;63523;51.880;12.630;2023-04-03T11:45:59;7.81;46.61
74968;SHT30;63523;51.880;12.630;2023-04-03T11:55:55;7.21;46.96
74968;SHT30;63523;51.880;12.630;2023-04-03T11:58:33;7.05;47.48
74968;SHT30;63523;51.880;12.630;2023-04-03T12:01:08;7.18;46.52
74968;SHT30;63523;51.880;12.630;2023-04-03T12:37:54;7.34;46.94
74968;SHT30;63523;51.880;12.630;2023-04-03T12:40:43;7.60;43.43
74968;SHT30;63523;51.880;12.630;2023-04-03T12:45:52;7.84;43.71
74968;SHT30;63523;51.880;12.630;2023-04-03T12:48:27;7.87;39.82
74968;SHT30;63523;51.880;12.630;2023-04-03T12:50:54;7.69;40.36
74968;SHT30;63523;51.880;12.630;2023-04-03T12:53:24;7.73;42.23
74968;SHT30;63523;51.880;12.630;2023-04-03T12:58:54;7.81;43.16
74968;SHT30;63523;51.880;12.630;2023-04-03T13:01:24;7.88;43.28
74968;SHT30;63523;51.880;12.630;2023-04-03T13:03:56;7.73;41.13
74968;SHT30;63523;51.880;12.630;2023-04-03T13:06:22;7.60;43.43
74968;SHT30;63523;51.880;12.630;2023-04-03T13:08:57;7.51;43.97
74968;SHT30;63523;51.880;12.630;2023-04-03T13:11:24;7.46;46.21
74968;SHT30;63523;51.880;12.630;2023-04-03T13:16:24;7.46;43.19
74968;SHT30;63523;51.880;12.630;2023-04-03T13:18:52;7.51;43.37
74968;SHT30;63523;51.880;12.630;2023-04-03T13:21:28;7.63;42.79
74968;SHT30;63523;51.880;12.630;2023-04-03T13:23:58;7.55;42.71
74968;SHT30;63523;51.880;12.630;2023-04-03T13:26:29;7.58;44.08
74968;SHT30;63523;51.880;12.630;2023-04-03T13:29:05;7.77;43.38
74968;SHT30;63523;51.880;12.630;2023-04-03T13:31:36;7.80;41.65
74968;SHT30;63523;51.880;12.630;2023-04-03T13:34:19;7.69;42.30
74968;SHT30;63523;51.880;12.630;2023-04-03T13:36:58;7.62;43.77
74968;SHT30;63523;51.880;12.630;2023-04-03T13:39:30;7.62;43.68
74968;SHT30;63523;51.880;12.630;2023-04-03T13:41:58;7.59;43.04
74968;SHT30;63523;51.880;12.630;2023-04-03T13:44:29;7.59;43.26
74968;SHT30;63523;51.880;12.630;2023-04-03T13:46:57;7.39;41.55
74968;SHT30;63523;51.880;12.630;2023-04-03T13:49:40;7.35;43.95
74968;SHT30;63523;51.880;12.630;2023-04-03T13:52:53;7.32;42.60
74968;SHT30;63523;51.880;12.630;2023-04-03T13:55:50;7.29;42.78
74968;SHT30;63523;51.880;12.630;2023-04-03T14:01:08;7.49;42.40
74968;SHT30;63523;51.880;12.630;2023-04-03T14:03:55;7.38;42.44
74968;SHT30;63523;51.880;12.630;2023-04-03T14:06:21;7.28;42.51
74968;SHT30;63523;51.880;12.630;2023-04-03T14:08:47;7.34;44.67
74968;SHT30;63523;51.880;12.630;2023-04-03T14:11:22;7.51;45.75
74968;SHT30;63523;51.880;12.630;2023-04-03T14:13:48;7.42;45.53
74968;SHT30;63523;51.880;12.630;2023-04-03T14:16:18;7.31;45.77
74968;SHT30;63523;51.880;12.630;2023-04-03T14:18:45;7.25;43.00
74968;SHT30;63523;51.880;12.630;2023-04-03T14:21:13;7.14;43.97
74968;SHT30;63523;51.880;12.630;2023-04-03T14:23:39;7.15;42.75
74968;SHT30;63523;51.880;12.630;2023-04-03T14:26:16;7.28;45.72
74968;SHT30;63523;51.880;12.630;2023-04-03T14:28:44;7.25;44.15
74968;SHT30;63523;51.880;12.630;2023-04-03T14:31:14;7.36;44.37
74968;SHT30;63523;51.880;12.630;2023-04-03T14:33:41;7.51;43.81
74968;SHT30;63523;51.880;12.630;2023-04-03T14:36:26;7.56;42.74
74968;SHT30;63523;51.880;12.630;2023-04-03T14:38:52;7.59;42.96
74968;SHT30;63523;51.880;12.630;2023-04-03T14:41:21;7.43;42.70
74968;SHT30;63523;51.880;12.630;2023-04-03T14:43:47;7.36;43.78
74968;SHT30;63523;51.880;12.630;2023-04-03T14:48:52;7.18;43.68
74968;SHT30;63523;51.880;12.630;2023-04-03T14:51:18;7.21;46.82
74968;SHT30;63523;51.880;12.630;2023-04-03T14:53:44;7.14;44.92
74968;SHT30;63523;51.880;12.630;2023-04-03T14:56:17;6.97;43.92
74968;SHT30;63523;51.880;12.630;2023-04-03T14:58:44;6.84;46.28
74968;SHT30;63523;51.880;12.630;2023-04-03T15:01:11;6.91;45.37
74968;SHT30;63523;51.880;12.630;2023-04-03T15:03:37;6.83;47.09
74968;SHT30;63523;51.880;12.630;2023-04-03T15:06:03;6.72;47.93
74968;SHT30;63523;51.880;12.630;2023-04-03T15:08:29;6.77;48.01
74968;SHT30;63523;51.880;12.630;2023-04-03T15:10:55;6.68;46.67
74968;SHT30;63523;51.880;12.630;2023-04-03T15:13:22;6.57;45.77
74968;SHT30;63523;51.880;12.630;2023-04-03T15:15:48;6.52;46.14
74968;SHT30;63523;51.880;12.630;2023-04-03T15:18:18;6.49;47.76
74968;SHT30;63523;51.880;12.630;2023-04-03T15:20:44;6.69;48.68
74968;SHT30;63523;51.880;12.630;2023-04-03T15:23:12;6.60;48.44
74968;SHT30;63523;51.880;12.630;2023-04-03T15:25:38;6.52;46.84
74968;SHT30;63523;51.880;12.630;2023-04-03T15:28:05;6.48;48.03
74968;SHT30;63523;51.880;12.630;2023-04-03T15:30:31;6.60;49.54
74968;SHT30;63523;51.880;12.630;2023-04-03T15:32:56;6.72;47.73
74968;SHT30;63523;51.880;12.630;2023-04-03T15:35:22;6.57;47.93
74968;SHT30;63523;51.880;12.630;2023-04-03T15:37:48;6.69;46.17
74968;SHT30;63523;51.880;12.630;2023-04-03T15:40:14;6.59;49.21
74968;SHT30;63523;51.880;12.630;2023-04-03T15:42:39;6.43;46.33
74968;SHT30;63523;51.880;12.630;2023-04-03T15:45:06;6.45;46.89
74968;SHT30;63523;51.880;12.630;2023-04-03T15:47:32;6.39;48.56
74968;SHT30;63523;51.880;12.630;2023-04-03T15:49:57;6.15;48.12
74968;SHT30;63523;51.880;12.630;2023-04-03T15:52:23;5.94;48.84
74968;SHT30;63523;51.880;12.630;2023-04-03T15:54:49;5.89;46.95
74968;SHT30;63523;51.880;12.630;2023-04-03T15:57:14;5.93;47.75
74968;SHT30;63523;51.880;12.630;2023-04-03T15:59:40;5.94;48.13
74968;SHT30;63523;51.880;12.630;2023-04-03T16:02:07;5.97;50.17
74968;SHT30;63523;51.880;12.630;2023-04-03T16:04:34;6.10;46.60
74968;SHT30;63523;51.880;12.630;2023-04-03T16:07:03;6.07;46.73
74968;SHT30;63523;51.880;12.630;2023-04-03T16:09:30;5.98;46.27
74968;SHT30;63523;51.880;12.630;2023-04-03T16:11:55;5.93;48.08
74968;SHT30;63523;51.880;12.630;2023-04-03T16:14:21;6.03;46.09
74968;SHT30;63523;51.880;12.630;2023-04-03T16:16:47;6.06;46.26
74968;SHT30;63523;51.880;12.630;2023-04-03T16:19:12;6.00;44.54
74968;SHT30;63523;51.880;12.630;2023-04-03T16:21:38;6.04;45.54
74968;SHT30;63523;51.880;12.630;2023-04-03T16:24:04;6.14;44.83
74968;SHT30;63523;51.880;12.630;2023-04-03T16:26:30;6.10;43.71
74968;SHT30;63523;51.880;12.630;2023-04-03T16:28:55;6.10;46.47
74968;SHT30;63523;51.880;12.630;2023-04-03T16:31:22;6.15;44.97
74968;SHT30;63523;51.880;12.630;2023-04-03T16:33:49;6.08;46.05
74968;SHT30;63523;51.880;12.630;2023-04-03T16:36:14;6.00;45.98
74968;SHT30;63523;51.880;12.630;2023-04-03T16:38:40;5.96;45.33
74968;SHT30;63523;51.880;12.630;2023-04-03T16:41:06;5.71;49.26
74968;SHT30;63523;51.880;12.630;2023-04-03T16:43:32;5.86;45.80
74968;SHT30;63523;51.880;12.630;2023-04-03T16:45:58;5.89;47.76
74968;SHT30;63523;51.880;12.630;2023-04-03T16:48:23;5.89;47.49
74968;SHT30;63523;51.880;12.630;2023-04-03T16:50:49;5.81;46.69
74968;SHT30;63523;51.880;12.630;2023-04-03T16:53:21;5.70;49.11
74968;SHT30;63523;51.880;12.630;2023-04-03T16:55:47;5.62;46.74
74968;SHT30;63523;51.880;12.630;2023-04-03T16:58:12;5.55;49.00
74968;SHT30;63523;51.880;12.630;2023-04-03T17:00:39;5.45;49.27
74968;SHT30;63523;51.880;12.630;2023-04-03T17:03:05;5.39;50.79
74968;SHT30;63523;51.880;12.630;2023-04-03T17:05:31;5.45;51.25
74968;SHT30;63523;51.880;12.630;2023-04-03T17:07:56;5.32;49.76
74968;SHT30;63523;51.880;12.630;2023-04-03T17:10:21;5.21;51.54
74968;SHT30;63523;51.880;12.630;2023-04-03T17:12:47;5.30;48.42
74968;SHT30;63523;51.880;12.630;2023-04-03T17:15:13;5.36;47.96
74968;SHT30;63523;51.880;12.630;2023-04-03T17:17:38;5.46;51.11
74968;SHT30;63523;51.880;12.630;2023-04-03T17:20:04;5.56;49.85
74968;SHT30;63523;51.880;12.630;2023-04-03T17:22:30;5.55;50.49
74968;SHT30;63523;51.880;12.630;2023-04-03T17:24:57;5.58;49.00
74968;SHT30;63523;51.880;12.630;2023-04-03T17:27:24;5.48;51.99
74968;SHT30;63523;51.880;12.630;2023-04-03T17:29:49;5.38;51.11